createdAt,value
2022-12-08T00:01:25.887Z,5.82
2022-12-08T00:03:53.911Z,5.00
2022-12-08T00:06:55.308Z,5.70
2022-12-08T00:09:24.371Z,6.30
2022-12-08T00:12:00.181Z,6.63
2022-12-08T00:14:32.890Z,5.50
2022-12-08T00:17:00.552Z,5.45
2022-12-08T00:19:28.386Z,5.82
2022-12-08T00:21:55.838Z,5.63
2022-12-08T00:24:24.555Z,5.70
2022-12-08T00:26:52.305Z,5.40
2022-12-08T00:29:19.286Z,5.68
2022-12-08T00:31:46.377Z,5.85
2022-12-08T00:34:14.311Z,5.70
2022-12-08T00:36:42.576Z,4.88
2022-12-08T00:39:14.667Z,4.50
2022-12-08T00:42:00.116Z,4.80
2022-12-08T00:44:27.900Z,4.32
2022-12-08T00:46:54.952Z,4.40
2022-12-08T00:49:22.582Z,4.13
2022-12-08T00:51:49.373Z,4.03
2022-12-08T00:54:16.771Z,4.25
2022-12-08T00:56:43.485Z,5.35
2022-12-08T00:59:10.389Z,4.40
2022-12-08T01:01:37.425Z,4.72
2022-12-08T01:04:10.737Z,4.80
2022-12-08T01:06:38.604Z,3.58
2022-12-08T01:09:07.636Z,4.07
2022-12-08T01:11:35.137Z,3.47
2022-12-08T01:14:02.962Z,4.25
2022-12-08T01:16:33.500Z,3.95
2022-12-08T01:19:00.880Z,3.67
2022-12-08T01:21:28.703Z,4.40
2022-12-08T01:23:55.959Z,4.70
2022-12-08T01:26:22.695Z,3.78
2022-12-08T01:28:49.407Z,3.70
2022-12-08T01:31:19.596Z,3.80
2022-12-08T01:33:47.936Z,3.92
2022-12-08T01:36:30.416Z,4.07
2022-12-08T01:38:58.957Z,3.58
2022-12-08T01:41:28.790Z,3.40
2022-12-08T01:44:23.149Z,3.33
2022-12-08T01:46:52.572Z,3.65
2022-12-08T01:49:32.840Z,3.70
2022-12-08T01:52:16.411Z,4.03
2022-12-08T01:54:52.501Z,3.47
2022-12-08T01:57:31.314Z,3.78
2022-12-08T02:00:07.090Z,3.58
2022-12-08T02:03:01.238Z,3.40
2022-12-08T02:05:32.435Z,3.50
2022-12-08T02:08:01.987Z,3.67
2022-12-08T02:10:31.537Z,3.47
2022-12-08T02:12:59.844Z,3.28
2022-12-08T02:15:43.567Z,4.13
2022-12-08T02:18:41.101Z,3.58
2022-12-08T02:21:33.696Z,3.20
2022-12-08T02:24:15.695Z,3.63
2022-12-08T02:27:21.141Z,3.30
2022-12-08T02:30:18.827Z,3.50
2022-12-08T02:33:05.682Z,3.35
2022-12-08T02:35:53.906Z,3.08
2022-12-08T02:38:35.856Z,2.80
2022-12-08T02:41:26.898Z,3.47
2022-12-08T02:44:06.629Z,3.13
2022-12-08T02:46:41.179Z,3.78
2022-12-08T02:49:07.989Z,3.70
2022-12-08T02:51:34.657Z,3.28
2022-12-08T02:54:02.909Z,3.60
2022-12-08T02:57:31.279Z,3.60
2022-12-08T03:00:13.460Z,3.25
2022-12-08T03:03:08.037Z,4.05
2022-12-08T03:05:59.907Z,3.65
2022-12-08T03:08:50.615Z,3.35
2022-12-08T03:11:26.972Z,3.60
2022-12-08T03:13:57.848Z,3.53
2022-12-08T03:16:29.652Z,2.72
2022-12-08T03:19:14.542Z,3.20
2022-12-08T03:21:44.412Z,3.45
2022-12-08T03:24:13.088Z,3.67
2022-12-08T03:27:32.016Z,2.70
2022-12-08T03:30:00.673Z,3.15
2022-12-08T03:32:40.236Z,3.20
2022-12-08T03:35:13.623Z,2.92
2022-12-08T03:37:40.992Z,3.10
2022-12-08T03:40:10.784Z,3.35
2022-12-08T03:42:37.445Z,2.97
2022-12-08T03:45:06.546Z,3.85
2022-12-08T03:47:33.236Z,3.67
2022-12-08T03:49:59.882Z,3.33
2022-12-08T03:52:26.593Z,3.38
2022-12-08T03:54:53.516Z,3.05
2022-12-08T03:57:21.197Z,3.03
2022-12-08T03:59:47.862Z,3.95
2022-12-08T04:02:14.665Z,3.58
2022-12-08T04:04:41.324Z,3.17
2022-12-08T04:07:07.989Z,3.45
2022-12-08T04:09:34.639Z,3.45
2022-12-08T04:12:01.311Z,3.58
2022-12-08T04:14:28.017Z,3.67
2022-12-08T04:16:54.697Z,3.92
2022-12-08T04:19:21.412Z,3.63
2022-12-08T04:21:48.158Z,3.45
2022-12-08T04:24:14.896Z,3.42
2022-12-08T04:26:41.586Z,3.45
2022-12-08T04:29:08.280Z,5.43
2022-12-08T04:31:35.021Z,3.28
2022-12-08T04:34:01.754Z,3.80
2022-12-08T04:36:28.434Z,3.17
2022-12-08T04:38:55.146Z,3.35
2022-12-08T04:41:21.843Z,3.53
2022-12-08T04:43:48.533Z,3.78
2022-12-08T04:46:15.259Z,3.90
2022-12-08T04:48:42.017Z,3.22
2022-12-08T04:51:17.583Z,3.78
2022-12-08T04:53:46.877Z,3.05
2022-12-08T04:56:18.724Z,3.42
2022-12-08T04:58:46.164Z,3.42
2022-12-08T05:01:13.522Z,3.78
2022-12-08T05:03:40.273Z,3.38
2022-12-08T05:06:07.447Z,3.30
2022-12-08T05:08:34.188Z,4.13
2022-12-08T05:11:06.071Z,3.88
2022-12-08T05:13:33.179Z,3.17
2022-12-08T05:16:07.752Z,3.38
2022-12-08T05:18:35.477Z,2.95
2022-12-08T05:21:02.738Z,3.08
2022-12-08T05:23:29.705Z,3.40
2022-12-08T05:25:57.220Z,3.80
2022-12-08T05:31:15.548Z,3.45
2022-12-08T05:33:42.922Z,3.28
2022-12-08T05:36:11.777Z,3.63
2022-12-08T05:38:38.986Z,3.88
2022-12-08T05:41:10.581Z,3.22
2022-12-08T05:43:37.249Z,3.30
2022-12-08T05:46:03.988Z,3.80
2022-12-08T05:48:30.789Z,3.40
2022-12-08T05:50:57.504Z,2.97
2022-12-08T05:53:24.336Z,3.40
2022-12-08T05:55:50.987Z,3.47
2022-12-08T05:58:20.322Z,2.97
2022-12-08T06:00:48.337Z,3.55
2022-12-08T06:03:16.439Z,3.25
2022-12-08T06:05:44.904Z,3.10
2022-12-08T06:08:11.953Z,3.53
2022-12-08T06:10:40.203Z,2.70
2022-12-08T06:13:06.931Z,3.28
2022-12-08T06:15:38.000Z,3.65
2022-12-08T06:18:05.520Z,3.42
2022-12-08T06:20:32.459Z,3.65
2022-12-08T06:22:59.168Z,3.70
2022-12-08T06:25:26.064Z,3.10
2022-12-08T06:27:52.804Z,3.13
2022-12-08T06:30:19.505Z,3.72
2022-12-08T06:32:46.230Z,4.22
2022-12-08T06:35:12.920Z,3.72
2022-12-08T06:37:39.700Z,3.83
2022-12-08T06:40:07.308Z,3.95
2022-12-08T06:42:44.153Z,3.95
2022-12-08T06:45:12.954Z,4.82
2022-12-08T06:47:39.736Z,3.83
2022-12-08T06:50:08.069Z,3.65
2022-12-08T06:52:40.885Z,4.72
2022-12-08T06:55:29.181Z,4.38
2022-12-08T06:57:59.506Z,4.22
2022-12-08T07:00:26.204Z,4.53
2022-12-08T07:02:52.917Z,4.93
2022-12-08T07:05:19.717Z,4.28
2022-12-08T07:07:46.471Z,4.40
2022-12-08T07:10:13.199Z,5.60
2022-12-08T07:12:39.836Z,4.60
2022-12-08T07:15:07.226Z,4.32
2022-12-08T07:17:33.934Z,4.85
2022-12-08T07:20:00.688Z,4.30
2022-12-08T07:22:27.348Z,4.50
2022-12-08T07:24:54.027Z,5.15
2022-12-08T07:27:20.677Z,5.28
2022-12-08T07:29:47.355Z,4.43
2022-12-08T07:32:14.472Z,4.80
2022-12-08T07:34:41.134Z,4.30
2022-12-08T07:37:07.883Z,5.57
2022-12-08T07:39:34.563Z,5.28
2022-12-08T07:42:01.265Z,4.68
2022-12-08T07:44:27.922Z,5.57
2022-12-08T07:46:56.914Z,4.93
2022-12-08T07:49:23.632Z,5.25
2022-12-08T07:51:50.342Z,5.45
2022-12-08T07:54:17.038Z,4.70
2022-12-08T07:56:43.726Z,5.85
2022-12-08T07:59:10.382Z,5.22
2022-12-08T08:01:37.173Z,5.40
2022-12-08T08:04:05.430Z,5.38
2022-12-08T08:06:33.713Z,4.70
2022-12-08T08:09:00.649Z,5.82
2022-12-08T08:11:27.504Z,5.88
2022-12-08T08:13:54.198Z,5.25
2022-12-08T08:16:21.594Z,5.00
2022-12-08T08:18:50.554Z,4.75
2022-12-08T08:24:05.807Z,6.68
2022-12-08T08:26:32.460Z,5.78
2022-12-08T08:28:59.211Z,5.03
2022-12-08T08:31:27.206Z,4.95
2022-12-08T08:33:55.862Z,4.70
2022-12-08T08:36:22.608Z,5.00
2022-12-08T08:38:49.304Z,5.35
2022-12-08T08:41:16.042Z,5.85
2022-12-08T08:43:42.759Z,4.97
2022-12-08T08:46:10.224Z,6.07
2022-12-08T08:48:38.066Z,5.18
2022-12-08T08:51:13.328Z,4.85
2022-12-08T08:53:40.941Z,5.65
2022-12-08T08:56:12.839Z,6.30
2022-12-08T08:58:39.696Z,5.60
2022-12-08T09:01:06.575Z,5.30
2022-12-08T09:03:33.847Z,5.13
2022-12-08T09:06:00.827Z,6.55
2022-12-08T09:08:27.644Z,6.15
2022-12-08T09:10:55.127Z,6.63
2022-12-08T09:13:22.469Z,5.32
2022-12-08T09:15:49.413Z,6.15
2022-12-08T09:18:16.198Z,5.75
2022-12-08T09:20:42.917Z,6.82
2022-12-08T09:23:09.592Z,6.38
2022-12-08T09:25:36.555Z,6.50
2022-12-08T09:28:03.447Z,6.38
2022-12-08T09:30:30.366Z,5.70
2022-12-08T09:32:57.232Z,6.43
2022-12-08T09:35:24.984Z,6.75
2022-12-08T09:37:51.711Z,6.68
2022-12-08T09:40:21.449Z,7.07
2022-12-08T09:42:55.777Z,6.25
2022-12-08T09:45:24.676Z,6.10
2022-12-08T09:48:04.980Z,6.63
2022-12-08T09:50:40.884Z,6.20
2022-12-08T09:53:44.358Z,5.93
2022-12-08T09:56:31.158Z,6.53
2022-12-08T09:59:17.003Z,7.13
2022-12-08T10:01:43.896Z,7.78
2022-12-08T10:04:22.673Z,7.97
2022-12-08T10:06:52.250Z,8.13
2022-12-08T10:09:37.615Z,7.38
2022-12-08T10:12:41.537Z,8.18
2022-12-08T10:15:26.369Z,8.52
2022-12-08T10:17:55.049Z,7.57
2022-12-08T10:20:25.960Z,7.28
2022-12-08T10:23:14.145Z,7.50
2022-12-08T10:25:56.685Z,7.72
2022-12-08T10:28:23.394Z,6.85
2022-12-08T10:30:50.258Z,8.50
2022-12-08T10:33:21.033Z,6.93
2022-12-08T10:35:56.560Z,7.72
2022-12-08T10:38:29.299Z,6.97
2022-12-08T10:41:04.856Z,6.70
2022-12-08T10:43:33.303Z,6.90
2022-12-08T10:46:20.553Z,6.25
2022-12-08T10:49:05.461Z,7.50
2022-12-08T10:51:38.011Z,8.35
2022-12-08T10:54:06.288Z,7.32
2022-12-08T10:56:33.499Z,6.43
2022-12-08T10:59:14.605Z,6.65
2022-12-08T11:01:46.729Z,5.97
2022-12-08T11:04:18.413Z,5.90
2022-12-08T11:06:49.038Z,6.00
2022-12-08T11:09:16.771Z,5.60
2022-12-08T11:11:52.478Z,5.50
2022-12-08T11:14:22.231Z,4.63
2022-12-08T11:16:51.691Z,5.25
2022-12-08T11:19:19.880Z,6.25
2022-12-08T11:21:46.598Z,6.15
2022-12-08T11:24:28.629Z,5.57
2022-12-08T11:27:04.094Z,6.00
2022-12-08T11:29:36.198Z,7.47
2022-12-08T11:32:14.662Z,6.32
2022-12-08T11:35:00.735Z,6.53
2022-12-08T11:37:36.104Z,5.97
2022-12-08T11:40:14.761Z,6.35
2022-12-08T11:43:08.739Z,6.13
2022-12-08T11:45:36.524Z,6.38
2022-12-08T11:48:27.360Z,5.72
2022-12-08T11:51:09.112Z,6.07
2022-12-08T11:53:38.919Z,6.68
2022-12-08T11:56:15.392Z,6.95
2022-12-08T11:58:47.318Z,7.85
2022-12-08T12:01:21.253Z,6.90
2022-12-08T12:04:27.968Z,6.85
2022-12-08T12:06:55.585Z,6.03
2022-12-08T12:09:49.683Z,7.72
2022-12-08T12:12:28.397Z,6.50
2022-12-08T12:15:19.902Z,6.78
2022-12-08T12:17:58.438Z,7.63
2022-12-08T12:20:33.856Z,5.82
2022-12-08T12:23:20.100Z,6.60
2022-12-08T12:25:57.099Z,6.60
2022-12-08T12:28:31.037Z,7.35
2022-12-08T12:31:11.665Z,6.70
2022-12-08T12:33:38.673Z,7.05
2022-12-08T12:36:09.084Z,8.18
2022-12-08T12:38:58.750Z,7.47
2022-12-08T12:41:29.169Z,7.20
2022-12-08T12:44:15.656Z,8.60
2022-12-08T12:46:53.509Z,8.43
2022-12-08T12:49:38.954Z,8.40
2022-12-08T12:52:21.298Z,8.10
2022-12-08T12:54:50.771Z,7.15
2022-12-08T12:57:23.343Z,7.50
2022-12-08T12:59:55.596Z,8.07
2022-12-08T13:02:30.549Z,7.93
2022-12-08T13:05:16.078Z,8.13
2022-12-08T13:07:55.246Z,7.18
2022-12-08T13:10:26.966Z,6.80
2022-12-08T13:13:16.537Z,6.25
2022-12-08T13:15:52.433Z,6.05
2022-12-08T13:18:26.995Z,6.70
2022-12-08T13:21:03.352Z,5.75
2022-12-08T13:23:44.374Z,4.70
2022-12-08T13:26:17.341Z,3.22
2022-12-08T13:29:03.628Z,3.75
2022-12-08T13:31:48.387Z,4.40
2022-12-08T13:34:24.904Z,3.00
2022-12-08T13:37:16.042Z,2.78
2022-12-08T13:39:50.918Z,3.00
2022-12-08T13:42:41.432Z,2.25
2022-12-08T13:46:41.946Z,2.20
2022-12-08T13:49:41.899Z,1.80
2022-12-08T13:57:29.789Z,3.42
2022-12-08T14:00:08.111Z,2.30
2022-12-08T14:02:48.183Z,2.50
2022-12-08T14:05:21.689Z,1.77
2022-12-08T14:07:57.125Z,2.00
2022-12-08T14:10:27.842Z,1.75
2022-12-08T14:13:03.064Z,1.70
2022-12-08T14:15:37.201Z,1.20
2022-12-08T14:18:07.794Z,1.80
2022-12-08T14:20:57.897Z,1.83
2022-12-08T14:23:22.785Z,1.90
2022-12-08T14:25:49.641Z,1.90
2022-12-08T14:28:17.135Z,2.33
2022-12-08T14:30:44.703Z,2.45
2022-12-08T14:33:19.275Z,1.70
2022-12-08T14:35:55.325Z,1.48
2022-12-08T14:38:25.014Z,1.70
2022-12-08T14:41:11.222Z,1.90
2022-12-08T14:43:38.014Z,2.13
2022-12-08T14:46:19.513Z,1.40
2022-12-08T14:48:46.839Z,2.78
2022-12-08T14:51:24.421Z,1.98
2022-12-08T14:54:02.545Z,1.50
2022-12-08T14:56:58.143Z,1.50
2022-12-08T14:59:31.269Z,1.70
2022-12-08T15:02:16.306Z,1.40
2022-12-08T15:04:45.939Z,1.60
2022-12-08T15:07:31.294Z,1.38
2022-12-08T15:10:22.837Z,2.00
2022-12-08T15:13:09.504Z,1.90
2022-12-08T15:15:49.998Z,1.70
2022-12-08T15:18:18.340Z,1.60
2022-12-08T15:21:01.052Z,1.83
2022-12-08T15:23:45.128Z,1.95
2022-12-08T15:26:26.361Z,1.65
2022-12-08T15:28:54.082Z,1.52
2022-12-08T15:31:24.105Z,2.08
2022-12-08T15:33:51.098Z,1.55
2022-12-08T15:36:18.295Z,1.65
2022-12-08T15:38:44.967Z,1.83
2022-12-08T15:41:14.985Z,2.00
2022-12-08T15:43:42.158Z,2.00
2022-12-08T15:46:08.952Z,2.25
2022-12-08T15:48:38.347Z,1.80
2022-12-08T15:51:11.388Z,2.35
2022-12-08T15:53:39.177Z,1.83
2022-12-08T15:58:57.333Z,1.92
2022-12-08T16:01:26.244Z,2.47
2022-12-08T16:07:19.625Z,2.25
2022-12-08T16:09:36.366Z,2.70
2022-12-08T16:12:23.161Z,2.17
2022-12-08T16:17:37.738Z,2.47
2022-12-08T16:20:32.715Z,2.63
2022-12-08T16:23:34.201Z,3.38
2022-12-08T16:28:53.778Z,4.05
2022-12-08T16:31:23.385Z,4.18
2022-12-08T16:33:50.393Z,3.97
2022-12-08T16:36:17.057Z,4.50
2022-12-08T16:38:43.751Z,4.22
2022-12-08T16:41:36.304Z,4.10
2022-12-08T16:44:06.010Z,4.80
2022-12-08T16:46:33.771Z,4.63
2022-12-08T16:49:01.000Z,4.88
2022-12-08T16:51:28.312Z,6.10
2022-12-08T16:53:55.766Z,5.53
2022-12-08T16:56:27.523Z,6.10
2022-12-08T16:58:56.781Z,6.80
2022-12-08T17:01:24.409Z,6.40
2022-12-08T17:04:07.475Z,6.43
2022-12-08T17:06:38.383Z,6.97
2022-12-08T17:09:05.512Z,8.50
2022-12-08T17:11:42.389Z,6.47
2022-12-08T17:14:35.560Z,7.20
2022-12-08T17:17:06.711Z,6.07
2022-12-08T17:19:33.793Z,7.28
2022-12-08T17:22:02.348Z,7.03
2022-12-08T17:24:30.094Z,7.25
2022-12-08T17:27:13.493Z,6.80
2022-12-08T17:29:41.562Z,7.32
2022-12-08T17:32:08.330Z,6.70
2022-12-08T17:34:37.426Z,7.28
2022-12-08T17:37:04.134Z,7.25
2022-12-08T17:39:30.901Z,7.75
2022-12-08T17:42:11.590Z,7.53
2022-12-08T17:44:38.249Z,9.38
2022-12-08T17:47:05.714Z,6.75
2022-12-08T17:49:33.963Z,7.25
2022-12-08T17:52:04.079Z,7.93
2022-12-08T17:54:31.113Z,6.47
2022-12-08T17:56:58.816Z,6.82
2022-12-08T17:59:27.648Z,6.30
2022-12-08T18:01:55.991Z,8.32
2022-12-08T18:04:23.358Z,7.25
2022-12-08T18:06:50.197Z,6.32
2022-12-08T18:09:17.592Z,7.22
2022-12-08T18:11:46.322Z,6.15
2022-12-08T18:14:14.416Z,6.10
2022-12-08T18:16:43.915Z,8.23
2022-12-08T18:19:13.786Z,5.97
2022-12-08T18:21:41.526Z,6.07
2022-12-08T18:24:09.699Z,6.78
2022-12-08T18:26:36.551Z,7.32
2022-12-08T18:29:03.882Z,6.70
2022-12-08T18:31:30.648Z,7.93
2022-12-08T18:33:57.512Z,6.38
2022-12-08T18:36:25.662Z,7.43
2022-12-08T18:38:53.545Z,7.50
2022-12-08T18:41:25.727Z,6.88
2022-12-08T18:43:54.621Z,6.72
2022-12-08T18:46:22.223Z,7.70
2022-12-08T18:48:50.235Z,8.10
2022-12-08T18:51:19.843Z,8.05
2022-12-08T18:53:47.196Z,7.22
2022-12-08T18:56:29.300Z,7.35
2022-12-08T18:59:03.784Z,7.43
2022-12-08T19:01:36.406Z,6.57
2022-12-08T19:04:27.836Z,7.97
2022-12-08T19:06:54.044Z,7.85
2022-12-08T19:09:27.577Z,7.72
2022-12-08T19:11:55.599Z,8.15
2022-12-08T19:14:27.898Z,7.53
2022-12-08T19:16:55.569Z,7.75
2022-12-08T19:19:22.653Z,7.22
2022-12-08T19:21:59.119Z,8.07
2022-12-08T19:24:25.914Z,8.00
2022-12-08T19:26:53.124Z,8.60
2022-12-08T19:29:20.291Z,8.30
2022-12-08T19:31:47.297Z,9.98
2022-12-08T19:34:14.661Z,12.48
2022-12-08T19:36:43.130Z,13.90
2022-12-08T19:39:40.676Z,11.23
2022-12-08T19:42:35.294Z,11.00
2022-12-08T19:45:21.612Z,8.40
2022-12-08T19:47:49.201Z,12.27
2022-12-08T19:50:35.424Z,17.38
2022-12-08T19:53:13.712Z,15.40
2022-12-08T19:55:42.021Z,11.32
2022-12-08T19:58:09.807Z,10.90
2022-12-08T20:00:38.483Z,9.65
2022-12-08T20:03:05.618Z,8.63
2022-12-08T20:05:36.363Z,8.82
2022-12-08T20:08:03.361Z,10.32
2022-12-08T20:10:36.778Z,8.18
2022-12-08T20:13:26.253Z,7.95
2022-12-08T20:15:53.405Z,10.80
2022-12-08T20:18:20.524Z,10.52
2022-12-08T20:20:47.873Z,9.80
2022-12-08T20:23:16.364Z,9.10
2022-12-08T20:25:45.757Z,8.75
2022-12-08T20:28:12.700Z,8.82
2022-12-08T20:30:41.834Z,8.75
2022-12-08T20:33:15.404Z,9.35
2022-12-08T20:35:43.307Z,8.93
2022-12-08T20:38:10.247Z,9.35
2022-12-08T20:40:40.959Z,8.18
2022-12-08T20:43:11.806Z,9.65
2022-12-08T20:45:38.522Z,9.90
2022-12-08T20:48:05.925Z,9.00
2022-12-08T20:50:32.724Z,9.70
2022-12-08T20:52:59.578Z,8.20
2022-12-08T20:55:26.645Z,9.23
2022-12-08T20:57:53.724Z,9.45
2022-12-08T21:00:23.515Z,9.13
2022-12-08T21:02:56.340Z,9.75
2022-12-08T21:05:23.859Z,9.50
2022-12-08T21:07:50.709Z,8.60
2022-12-08T21:10:17.965Z,9.48
2022-12-08T21:12:44.669Z,10.15
2022-12-08T21:15:12.652Z,10.50
2022-12-08T21:17:39.880Z,10.38
2022-12-08T21:20:07.818Z,9.48
2022-12-08T21:22:34.982Z,8.93
2022-12-08T21:25:01.930Z,8.85
2022-12-08T21:27:28.754Z,9.10
2022-12-08T21:29:55.967Z,8.63
2022-12-08T21:32:27.221Z,9.70
2022-12-08T21:34:57.009Z,9.43
2022-12-08T21:37:24.545Z,9.48
2022-12-08T21:39:51.526Z,8.63
2022-12-08T21:42:37.394Z,8.70
2022-12-08T21:48:14.979Z,10.13
2022-12-08T21:50:41.997Z,8.75
2022-12-08T21:53:12.830Z,8.68
2022-12-08T21:55:39.769Z,7.95
2022-12-08T21:58:06.610Z,8.02
2022-12-08T22:00:33.597Z,7.68
2022-12-08T22:03:01.846Z,9.50
2022-12-08T22:05:28.909Z,8.00
2022-12-08T22:07:55.683Z,8.10
2022-12-08T22:10:23.760Z,8.52
2022-12-08T22:12:50.488Z,8.48
2022-12-08T22:15:17.287Z,9.50
2022-12-08T22:17:44.182Z,8.32
2022-12-08T22:20:13.745Z,8.60
2022-12-08T22:22:40.947Z,8.45
2022-12-08T22:25:11.877Z,7.57
2022-12-08T22:27:40.169Z,8.10
2022-12-08T22:30:11.979Z,8.88
2022-12-08T22:32:39.453Z,7.57
2022-12-08T22:35:06.570Z,8.07
2022-12-08T22:37:34.620Z,7.75
2022-12-08T22:40:01.438Z,8.18
2022-12-08T22:42:28.301Z,9.20
2022-12-08T22:44:56.335Z,7.47
2022-12-08T22:47:23.442Z,7.68
2022-12-08T22:49:50.098Z,7.65
2022-12-08T22:52:16.707Z,8.63
2022-12-08T22:54:43.634Z,8.27
2022-12-08T22:57:10.380Z,8.82
2022-12-08T22:59:41.413Z,10.80
2022-12-08T23:02:08.685Z,8.32
2022-12-08T23:04:36.426Z,9.57
2022-12-08T23:07:03.458Z,9.80
2022-12-08T23:09:31.211Z,9.00
2022-12-08T23:11:58.126Z,10.25
2022-12-08T23:14:24.788Z,9.30
2022-12-08T23:16:51.742Z,9.00
2022-12-08T23:19:22.167Z,10.48
2022-12-08T23:21:49.839Z,10.90
2022-12-08T23:24:18.010Z,8.82
2022-12-08T23:26:44.834Z,9.48
2022-12-08T23:29:11.493Z,9.15
2022-12-08T23:31:39.134Z,9.95
2022-12-08T23:34:06.080Z,9.68
2022-12-08T23:36:32.996Z,8.52
2022-12-08T23:38:59.731Z,9.95
2022-12-08T23:41:26.546Z,8.43
2022-12-08T23:43:53.299Z,10.43
2022-12-08T23:46:22.602Z,8.95
2022-12-08T23:48:50.804Z,8.60
2022-12-08T23:51:18.089Z,9.68
2022-12-08T23:53:45.504Z,8.98
2022-12-08T23:56:15.056Z,7.55
2022-12-08T23:58:42.796Z,8.85
